Weather at Borg El Arab International Airport

Public forecast

Using degrees Celsius for public forecast. Weather courtesy of forecast.io.

Current aviation weather report (METAR) for Borg El Arab International Airport

Retrieved 2020/11/29 03:00 UTC (41 minutes ago):

HEBA 290300Z 00000KT 9999 SCT020 13/10 Q1018 NOSIG

Aviation forecast (TAF) for Borg El Arab International Airport

Retrieved 2020-11-29 00:54 UTC (3 hours ago):

TAF HEBA 252300Z 2600/2706 22006KT 9999 SCT020 PROB40 TEMPO 2900/2906 VRB03KT 2000 BR NSC